sensor_id;sensor_type;location;lat;lon;timestamp;P1;durP1;ratioP1;P2;durP2;ratioP2
16039;SDS011;8124;48.634;8.120;2023-06-22T00:01:35;49.83;;;43.25;;
16039;SDS011;8124;48.634;8.120;2023-06-22T00:06:39;49.25;;;43.80;;
16039;SDS011;8124;48.634;8.120;2023-06-22T00:11:42;49.22;;;43.85;;
16039;SDS011;8124;48.634;8.120;2023-06-22T00:16:45;49.13;;;43.88;;
16039;SDS011;8124;48.634;8.120;2023-06-22T00:21:51;48.72;;;43.53;;
16039;SDS011;8124;48.634;8.120;2023-06-22T00:26:54;51.53;;;45.30;;
16039;SDS011;8124;48.634;8.120;2023-06-22T00:31:57;50.22;;;44.38;;
16039;SDS011;8124;48.634;8.120;2023-06-22T00:37:01;49.47;;;44.05;;
16039;SDS011;8124;48.634;8.120;2023-06-22T00:42:05;49.78;;;44.42;;
16039;SDS011;8124;48.634;8.120;2023-06-22T00:47:08;49.45;;;44.08;;
16039;SDS011;8124;48.634;8.120;2023-06-22T00:52:12;49.08;;;43.75;;
16039;SDS011;8124;48.634;8.120;2023-06-22T00:57:23;49.80;;;44.42;;
16039;SDS011;8124;48.634;8.120;2023-06-22T01:02:29;48.20;;;42.92;;
16039;SDS011;8124;48.634;8.120;2023-06-22T01:07:35;49.22;;;43.92;;
16039;SDS011;8124;48.634;8.120;2023-06-22T01:12:42;48.53;;;43.22;;
16039;SDS011;8124;48.634;8.120;2023-06-22T01:17:47;51.75;;;44.10;;
16039;SDS011;8124;48.634;8.120;2023-06-22T01:22:58;48.10;;;42.85;;
16039;SDS011;8124;48.634;8.120;2023-06-22T01:28:16;49.75;;;44.25;;
16039;SDS011;8124;48.634;8.120;2023-06-22T01:33:27;49.03;;;43.75;;
16039;SDS011;8124;48.634;8.120;2023-06-22T01:38:31;49.50;;;44.10;;
16039;SDS011;8124;48.634;8.120;2023-06-22T01:43:37;51.22;;;43.50;;
16039;SDS011;8124;48.634;8.120;2023-06-22T01:48:42;47.65;;;42.55;;
16039;SDS011;8124;48.634;8.120;2023-06-22T01:53:45;49.50;;;44.20;;
16039;SDS011;8124;48.634;8.120;2023-06-22T01:58:50;48.88;;;43.58;;
16039;SDS011;8124;48.634;8.120;2023-06-22T02:04:01;49.17;;;43.72;;
16039;SDS011;8124;48.634;8.120;2023-06-22T02:09:07;49.65;;;44.25;;
16039;SDS011;8124;48.634;8.120;2023-06-22T02:14:14;50.15;;;44.20;;
16039;SDS011;8124;48.634;8.120;2023-06-22T02:19:23;49.78;;;44.33;;
16039;SDS011;8124;48.634;8.120;2023-06-22T02:24:29;49.45;;;44.15;;
16039;SDS011;8124;48.634;8.120;2023-06-22T02:29:33;48.75;;;43.47;;
16039;SDS011;8124;48.634;8.120;2023-06-22T02:34:37;48.08;;;42.55;;
16039;SDS011;8124;48.634;8.120;2023-06-22T02:39:40;48.78;;;43.47;;
16039;SDS011;8124;48.634;8.120;2023-06-22T02:44:44;49.70;;;43.75;;
16039;SDS011;8124;48.634;8.120;2023-06-22T02:49:48;48.75;;;43.38;;
16039;SDS011;8124;48.634;8.120;2023-06-22T02:54:51;49.05;;;43.65;;
16039;SDS011;8124;48.634;8.120;2023-06-22T02:59:54;50.67;;;44.15;;
16039;SDS011;8124;48.634;8.120;2023-06-22T03:04:59;48.55;;;43.33;;
16039;SDS011;8124;48.634;8.120;2023-06-22T03:10:03;49.40;;;43.08;;
16039;SDS011;8124;48.634;8.120;2023-06-22T03:15:07;48.15;;;42.60;;
16039;SDS011;8124;48.634;8.120;2023-06-22T03:20:13;47.25;;;42.15;;
16039;SDS011;8124;48.634;8.120;2023-06-22T03:25:16;49.15;;;42.70;;
16039;SDS011;8124;48.634;8.120;2023-06-22T03:30:22;49.28;;;44.00;;
16039;SDS011;8124;48.634;8.120;2023-06-22T03:35:26;52.40;;;43.60;;
16039;SDS011;8124;48.634;8.120;2023-06-22T03:40:30;50.78;;;43.58;;
16039;SDS011;8124;48.634;8.120;2023-06-22T03:45:34;49.65;;;43.55;;
16039;SDS011;8124;48.634;8.120;2023-06-22T03:50:44;49.58;;;43.40;;
16039;SDS011;8124;48.634;8.120;2023-06-22T03:55:48;49.22;;;43.33;;
16039;SDS011;8124;48.634;8.120;2023-06-22T04:00:52;51.47;;;43.05;;
16039;SDS011;8124;48.634;8.120;2023-06-22T04:05:57;48.85;;;43.10;;
16039;SDS011;8124;48.634;8.120;2023-06-22T04:11:00;49.25;;;43.90;;
16039;SDS011;8124;48.634;8.120;2023-06-22T04:16:03;48.50;;;42.47;;
16039;SDS011;8124;48.634;8.120;2023-06-22T04:21:08;49.78;;;43.08;;
16039;SDS011;8124;48.634;8.120;2023-06-22T04:26:12;51.90;;;43.75;;
16039;SDS011;8124;48.634;8.120;2023-06-22T04:31:15;50.80;;;42.88;;
16039;SDS011;8124;48.634;8.120;2023-06-22T04:36:20;48.08;;;42.25;;
16039;SDS011;8124;48.634;8.120;2023-06-22T04:41:26;50.58;;;43.58;;
16039;SDS011;8124;48.634;8.120;2023-06-22T04:46:29;48.38;;;43.13;;
16039;SDS011;8124;48.634;8.120;2023-06-22T04:51:33;50.58;;;43.72;;
16039;SDS011;8124;48.634;8.120;2023-06-22T04:56:36;52.58;;;44.58;;
16039;SDS011;8124;48.634;8.120;2023-06-22T05:01:42;49.50;;;43.50;;
16039;SDS011;8124;48.634;8.120;2023-06-22T05:06:46;48.53;;;43.28;;
16039;SDS011;8124;48.634;8.120;2023-06-22T05:11:49;51.72;;;43.90;;
16039;SDS011;8124;48.634;8.120;2023-06-22T05:16:52;50.17;;;44.67;;
16039;SDS011;8124;48.634;8.120;2023-06-22T05:22:01;50.05;;;43.72;;
16039;SDS011;8124;48.634;8.120;2023-06-22T05:27:04;54.80;;;44.72;;
16039;SDS011;8124;48.634;8.120;2023-06-22T05:32:08;50.92;;;44.17;;
16039;SDS011;8124;48.634;8.120;2023-06-22T05:37:12;49.30;;;43.30;;
16039;SDS011;8124;48.634;8.120;2023-06-22T05:42:15;49.72;;;44.13;;
16039;SDS011;8124;48.634;8.120;2023-06-22T05:47:18;50.28;;;44.78;;
16039;SDS011;8124;48.634;8.120;2023-06-22T05:52:23;57.22;;;44.20;;
16039;SDS011;8124;48.634;8.120;2023-06-22T05:57:26;51.30;;;44.80;;
16039;SDS011;8124;48.634;8.120;2023-06-22T06:02:29;49.88;;;44.33;;
16039;SDS011;8124;48.634;8.120;2023-06-22T06:07:33;50.53;;;45.03;;
16039;SDS011;8124;48.634;8.120;2023-06-22T06:12:36;50.88;;;45.22;;
16039;SDS011;8124;48.634;8.120;2023-06-22T06:17:44;51.17;;;45.15;;
16039;SDS011;8124;48.634;8.120;2023-06-22T06:22:50;50.30;;;44.80;;
16039;SDS011;8124;48.634;8.120;2023-06-22T06:27:53;53.38;;;44.90;;
16039;SDS011;8124;48.634;8.120;2023-06-22T06:32:56;53.97;;;44.42;;
16039;SDS011;8124;48.634;8.120;2023-06-22T06:38:01;50.45;;;44.80;;
16039;SDS011;8124;48.634;8.120;2023-06-22T06:43:04;51.80;;;43.95;;
16039;SDS011;8124;48.634;8.120;2023-06-22T06:48:07;55.33;;;44.95;;
16039;SDS011;8124;48.634;8.120;2023-06-22T06:53:12;50.20;;;44.53;;
16039;SDS011;8124;48.634;8.120;2023-06-22T06:58:15;53.55;;;45.53;;
16039;SDS011;8124;48.634;8.120;2023-06-22T07:03:18;52.55;;;44.53;;
16039;SDS011;8124;48.634;8.120;2023-06-22T07:08:22;53.67;;;45.47;;
16039;SDS011;8124;48.634;8.120;2023-06-22T07:13:25;50.60;;;44.85;;
16039;SDS011;8124;48.634;8.120;2023-06-22T07:18:28;50.20;;;44.72;;
16039;SDS011;8124;48.634;8.120;2023-06-22T07:23:33;49.90;;;44.50;;
16039;SDS011;8124;48.634;8.120;2023-06-22T07:28:36;50.83;;;44.47;;
16039;SDS011;8124;48.634;8.120;2023-06-22T07:33:39;50.53;;;44.63;;
16039;SDS011;8124;48.634;8.120;2023-06-22T07:38:43;56.05;;;44.65;;
16039;SDS011;8124;48.634;8.120;2023-06-22T07:43:47;51.25;;;45.65;;
16039;SDS011;8124;48.634;8.120;2023-06-22T07:48:50;55.72;;;44.97;;
16039;SDS011;8124;48.634;8.120;2023-06-22T07:53:58;52.65;;;44.75;;
16039;SDS011;8124;48.634;8.120;2023-06-22T07:59:01;52.72;;;44.80;;
16039;SDS011;8124;48.634;8.120;2023-06-22T08:04:05;50.78;;;44.42;;
16039;SDS011;8124;48.634;8.120;2023-06-22T08:09:09;51.08;;;44.90;;
16039;SDS011;8124;48.634;8.120;2023-06-22T08:14:13;52.33;;;45.17;;
16039;SDS011;8124;48.634;8.120;2023-06-22T08:19:16;58.10;;;45.55;;
16039;SDS011;8124;48.634;8.120;2023-06-22T08:24:20;52.78;;;45.15;;
16039;SDS011;8124;48.634;8.120;2023-06-22T08:29:23;51.78;;;44.75;;
16039;SDS011;8124;48.634;8.120;2023-06-22T08:34:26;52.78;;;45.25;;
16039;SDS011;8124;48.634;8.120;2023-06-22T08:39:31;50.90;;;45.05;;
16039;SDS011;8124;48.634;8.120;2023-06-22T08:44:36;55.15;;;45.83;;
16039;SDS011;8124;48.634;8.120;2023-06-22T08:49:39;50.65;;;45.15;;
16039;SDS011;8124;48.634;8.120;2023-06-22T08:54:43;52.42;;;45.53;;
16039;SDS011;8124;48.634;8.120;2023-06-22T08:59:46;53.47;;;45.60;;
16039;SDS011;8124;48.634;8.120;2023-06-22T09:04:49;51.45;;;45.85;;
16039;SDS011;8124;48.634;8.120;2023-06-22T09:09:58;56.13;;;45.92;;
16039;SDS011;8124;48.634;8.120;2023-06-22T09:15:05;52.08;;;46.30;;
16039;SDS011;8124;48.634;8.120;2023-06-22T09:20:13;52.92;;;45.80;;
16039;SDS011;8124;48.634;8.120;2023-06-22T09:25:18;51.90;;;46.30;;
16039;SDS011;8124;48.634;8.120;2023-06-22T09:30:22;52.13;;;45.85;;
16039;SDS011;8124;48.634;8.120;2023-06-22T09:35:25;51.85;;;46.13;;
16039;SDS011;8124;48.634;8.120;2023-06-22T09:40:29;53.63;;;46.28;;
16039;SDS011;8124;48.634;8.120;2023-06-22T09:45:34;52.28;;;46.28;;
16039;SDS011;8124;48.634;8.120;2023-06-22T09:50:37;57.42;;;46.35;;
16039;SDS011;8124;48.634;8.120;2023-06-22T09:55:41;56.60;;;46.60;;
16039;SDS011;8124;48.634;8.120;2023-06-22T10:00:44;51.22;;;45.63;;
16039;SDS011;8124;48.634;8.120;2023-06-22T10:05:47;51.58;;;45.97;;
16039;SDS011;8124;48.634;8.120;2023-06-22T10:10:51;53.50;;;46.63;;
16039;SDS011;8124;48.634;8.120;2023-06-22T10:15:54;52.17;;;46.15;;
16039;SDS011;8124;48.634;8.120;2023-06-22T10:20:57;55.45;;;45.78;;
16039;SDS011;8124;48.634;8.120;2023-06-22T10:26:02;52.85;;;46.28;;
16039;SDS011;8124;48.634;8.120;2023-06-22T10:31:05;52.35;;;46.70;;
16039;SDS011;8124;48.634;8.120;2023-06-22T10:36:08;52.58;;;46.03;;
16039;SDS011;8124;48.634;8.120;2023-06-22T10:41:12;51.00;;;45.58;;
16039;SDS011;8124;48.634;8.120;2023-06-22T10:46:15;52.80;;;45.88;;
16039;SDS011;8124;48.634;8.120;2023-06-22T10:51:18;51.15;;;45.55;;
16039;SDS011;8124;48.634;8.120;2023-06-22T10:56:23;51.15;;;45.42;;
16039;SDS011;8124;48.634;8.120;2023-06-22T11:01:26;51.35;;;45.72;;
16039;SDS011;8124;48.634;8.120;2023-06-22T11:06:37;54.55;;;46.42;;
16039;SDS011;8124;48.634;8.120;2023-06-22T11:11:41;52.15;;;45.50;;
16039;SDS011;8124;48.634;8.120;2023-06-22T11:16:44;51.58;;;45.65;;
16039;SDS011;8124;48.634;8.120;2023-06-22T11:21:50;51.58;;;45.58;;
16039;SDS011;8124;48.634;8.120;2023-06-22T11:26:54;51.53;;;45.95;;
16039;SDS011;8124;48.634;8.120;2023-06-22T11:32:00;51.25;;;45.67;;
16039;SDS011;8124;48.634;8.120;2023-06-22T11:37:03;54.38;;;46.33;;
16039;SDS011;8124;48.634;8.120;2023-06-22T11:42:09;51.40;;;45.47;;
16039;SDS011;8124;48.634;8.120;2023-06-22T11:47:12;52.28;;;46.58;;
16039;SDS011;8124;48.634;8.120;2023-06-22T11:52:15;52.78;;;46.22;;
16039;SDS011;8124;48.634;8.120;2023-06-22T11:57:20;54.13;;;45.83;;
16039;SDS011;8124;48.634;8.120;2023-06-22T12:02:23;51.00;;;45.47;;
16039;SDS011;8124;48.634;8.120;2023-06-22T12:07:26;52.17;;;46.58;;
16039;SDS011;8124;48.634;8.120;2023-06-22T12:12:30;53.65;;;46.40;;
16039;SDS011;8124;48.634;8.120;2023-06-22T12:17:33;52.35;;;46.25;;
16039;SDS011;8124;48.634;8.120;2023-06-22T12:22:37;53.40;;;46.67;;
16039;SDS011;8124;48.634;8.120;2023-06-22T12:27:41;57.28;;;47.67;;
16039;SDS011;8124;48.634;8.120;2023-06-22T12:32:44;52.85;;;46.70;;
16039;SDS011;8124;48.634;8.120;2023-06-22T12:37:47;55.47;;;48.95;;
16039;SDS011;8124;48.634;8.120;2023-06-22T12:42:51;53.63;;;47.60;;
16039;SDS011;8124;48.634;8.120;2023-06-22T12:47:54;54.03;;;47.22;;
16039;SDS011;8124;48.634;8.120;2023-06-22T12:52:58;54.30;;;47.58;;
16039;SDS011;8124;48.634;8.120;2023-06-22T12:58:02;53.45;;;46.85;;
16039;SDS011;8124;48.634;8.120;2023-06-22T13:03:05;52.53;;;46.60;;
16039;SDS011;8124;48.634;8.120;2023-06-22T13:08:09;54.15;;;46.40;;
16039;SDS011;8124;48.634;8.120;2023-06-22T13:13:14;56.50;;;47.03;;
16039;SDS011;8124;48.634;8.120;2023-06-22T13:18:17;55.78;;;46.67;;
16039;SDS011;8124;48.634;8.120;2023-06-22T13:23:20;53.47;;;47.65;;
16039;SDS011;8124;48.634;8.120;2023-06-22T13:28:25;56.60;;;46.92;;
16039;SDS011;8124;48.634;8.120;2023-06-22T13:33:30;54.58;;;46.80;;
16039;SDS011;8124;48.634;8.120;2023-06-22T13:38:33;53.50;;;46.20;;
16039;SDS011;8124;48.634;8.120;2023-06-22T13:43:41;51.88;;;46.20;;
16039;SDS011;8124;48.634;8.120;2023-06-22T13:48:44;55.10;;;46.83;;
16039;SDS011;8124;48.634;8.120;2023-06-22T13:53:47;51.88;;;46.10;;
16039;SDS011;8124;48.634;8.120;2023-06-22T13:58:51;52.92;;;45.95;;
16039;SDS011;8124;48.634;8.120;2023-06-22T14:03:54;52.80;;;45.95;;
16039;SDS011;8124;48.634;8.120;2023-06-22T14:08:57;53.03;;;46.58;;
16039;SDS011;8124;48.634;8.120;2023-06-22T14:14:01;55.75;;;46.25;;
16039;SDS011;8124;48.634;8.120;2023-06-22T14:19:04;55.97;;;46.25;;
16039;SDS011;8124;48.634;8.120;2023-06-22T14:24:07;52.08;;;46.33;;
16039;SDS011;8124;48.634;8.120;2023-06-22T14:29:11;56.13;;;45.75;;
16039;SDS011;8124;48.634;8.120;2023-06-22T14:34:14;56.30;;;46.08;;
16039;SDS011;8124;48.634;8.120;2023-06-22T14:39:18;55.58;;;45.67;;
16039;SDS011;8124;48.634;8.120;2023-06-22T14:44:23;52.10;;;46.40;;
16039;SDS011;8124;48.634;8.120;2023-06-22T14:49:27;58.45;;;45.78;;
16039;SDS011;8124;48.634;8.120;2023-06-22T14:54:30;55.60;;;44.75;;
16039;SDS011;8124;48.634;8.120;2023-06-22T14:59:34;54.50;;;45.28;;
16039;SDS011;8124;48.634;8.120;2023-06-22T15:04:37;51.40;;;45.75;;
16039;SDS011;8124;48.634;8.120;2023-06-22T15:09:44;51.33;;;45.35;;
16039;SDS011;8124;48.634;8.120;2023-06-22T15:14:49;51.45;;;45.00;;
16039;SDS011;8124;48.634;8.120;2023-06-22T15:19:52;54.45;;;45.67;;
16039;SDS011;8124;48.634;8.120;2023-06-22T15:24:55;54.60;;;45.88;;
16039;SDS011;8124;48.634;8.120;2023-06-22T15:30:01;52.80;;;44.72;;
16039;SDS011;8124;48.634;8.120;2023-06-22T15:35:05;54.60;;;45.03;;
16039;SDS011;8124;48.634;8.120;2023-06-22T15:40:09;54.83;;;45.55;;
16039;SDS011;8124;48.634;8.120;2023-06-22T15:45:14;51.03;;;45.33;;
16039;SDS011;8124;48.634;8.120;2023-06-22T15:50:17;50.95;;;44.85;;
16039;SDS011;8124;48.634;8.120;2023-06-22T15:55:20;55.85;;;45.35;;
16039;SDS011;8124;48.634;8.120;2023-06-22T16:00:25;53.60;;;45.15;;
16039;SDS011;8124;48.634;8.120;2023-06-22T16:05:29;52.55;;;45.05;;
16039;SDS011;8124;48.634;8.120;2023-06-22T16:10:32;52.92;;;44.47;;
16039;SDS011;8124;48.634;8.120;2023-06-22T16:15:36;50.38;;;44.72;;
16039;SDS011;8124;48.634;8.120;2023-06-22T16:20:39;51.60;;;44.20;;
16039;SDS011;8124;48.634;8.120;2023-06-22T16:25:42;58.70;;;44.33;;
16039;SDS011;8124;48.634;8.120;2023-06-22T16:30:46;53.70;;;44.67;;
16039;SDS011;8124;48.634;8.120;2023-06-22T16:35:53;50.95;;;44.08;;
16039;SDS011;8124;48.634;8.120;2023-06-22T16:40:56;53.58;;;45.15;;
16039;SDS011;8124;48.634;8.120;2023-06-22T16:46:00;50.72;;;43.85;;
16039;SDS011;8124;48.634;8.120;2023-06-22T16:51:03;53.08;;;43.85;;
16039;SDS011;8124;48.634;8.120;2023-06-22T16:56:06;49.40;;;43.70;;
16039;SDS011;8124;48.634;8.120;2023-06-22T17:01:11;57.17;;;44.35;;
16039;SDS011;8124;48.634;8.120;2023-06-22T17:06:14;52.38;;;44.60;;
16039;SDS011;8124;48.634;8.120;2023-06-22T17:11:18;53.30;;;44.80;;
16039;SDS011;8124;48.634;8.120;2023-06-22T17:16:23;55.42;;;44.10;;
16039;SDS011;8124;48.634;8.120;2023-06-22T17:21:28;49.88;;;44.00;;
16039;SDS011;8124;48.634;8.120;2023-06-22T17:26:34;54.38;;;44.15;;
16039;SDS011;8124;48.634;8.120;2023-06-22T17:31:39;52.80;;;44.60;;
16039;SDS011;8124;48.634;8.120;2023-06-22T17:36:43;51.60;;;44.35;;
16039;SDS011;8124;48.634;8.120;2023-06-22T17:41:48;52.13;;;45.13;;
16039;SDS011;8124;48.634;8.120;2023-06-22T17:46:54;57.83;;;44.05;;
16039;SDS011;8124;48.634;8.120;2023-06-22T17:51:58;50.50;;;44.45;;
16039;SDS011;8124;48.634;8.120;2023-06-22T17:57:03;55.03;;;44.05;;
16039;SDS011;8124;48.634;8.120;2023-06-22T18:02:22;51.80;;;44.50;;
16039;SDS011;8124;48.634;8.120;2023-06-22T18:07:27;52.78;;;44.30;;
16039;SDS011;8124;48.634;8.120;2023-06-22T18:12:31;48.80;;;43.47;;
16039;SDS011;8124;48.634;8.120;2023-06-22T18:17:37;51.65;;;44.20;;
16039;SDS011;8124;48.634;8.120;2023-06-22T18:22:46;51.78;;;44.03;;
16039;SDS011;8124;48.634;8.120;2023-06-22T18:27:49;49.70;;;43.70;;
16039;SDS011;8124;48.634;8.120;2023-06-22T18:32:55;52.58;;;43.97;;
16039;SDS011;8124;48.634;8.120;2023-06-22T18:37:59;56.53;;;43.65;;
16039;SDS011;8124;48.634;8.120;2023-06-22T18:43:03;50.83;;;43.70;;
16039;SDS011;8124;48.634;8.120;2023-06-22T18:48:07;50.22;;;43.97;;
16039;SDS011;8124;48.634;8.120;2023-06-22T18:53:15;51.53;;;43.42;;
16039;SDS011;8124;48.634;8.120;2023-06-22T18:58:22;49.88;;;43.40;;
16039;SDS011;8124;48.634;8.120;2023-06-22T19:03:32;47.05;;;41.95;;
16039;SDS011;8124;48.634;8.120;2023-06-22T19:14:23;71.60;;;43.10;;
16039;SDS011;8124;48.634;8.120;2023-06-22T19:19:27;54.63;;;43.47;;
16039;SDS011;8124;48.634;8.120;2023-06-22T19:24:31;51.60;;;43.03;;
16039;SDS011;8124;48.634;8.120;2023-06-22T19:29:51;49.00;;;42.92;;
16039;SDS011;8124;48.634;8.120;2023-06-22T19:34:56;50.88;;;43.47;;
16039;SDS011;8124;48.634;8.120;2023-06-22T19:40:01;53.25;;;42.95;;
16039;SDS011;8124;48.634;8.120;2023-06-22T19:45:08;53.28;;;42.60;;
16039;SDS011;8124;48.634;8.120;2023-06-22T19:50:13;48.70;;;43.22;;
16039;SDS011;8124;48.634;8.120;2023-06-22T19:55:18;50.00;;;42.63;;
16039;SDS011;8124;48.634;8.120;2023-06-22T20:00:21;53.17;;;43.25;;
16039;SDS011;8124;48.634;8.120;2023-06-22T20:05:26;49.35;;;42.42;;
16039;SDS011;8124;48.634;8.120;2023-06-22T20:10:33;51.85;;;42.60;;
16039;SDS011;8124;48.634;8.120;2023-06-22T20:15:39;50.03;;;42.17;;
16039;SDS011;8124;48.634;8.120;2023-06-22T20:20:46;47.08;;;41.83;;
16039;SDS011;8124;48.634;8.120;2023-06-22T20:25:49;47.55;;;42.33;;
16039;SDS011;8124;48.634;8.120;2023-06-22T20:31:01;48.58;;;41.28;;
16039;SDS011;8124;48.634;8.120;2023-06-22T20:36:08;48.67;;;41.75;;
16039;SDS011;8124;48.634;8.120;2023-06-22T20:41:11;45.83;;;40.70;;
16039;SDS011;8124;48.634;8.120;2023-06-22T20:46:16;47.92;;;40.67;;
16039;SDS011;8124;48.634;8.120;2023-06-22T20:51:21;46.20;;;40.47;;
16039;SDS011;8124;48.634;8.120;2023-06-22T20:56:26;47.35;;;41.72;;
16039;SDS011;8124;48.634;8.120;2023-06-22T21:01:29;44.80;;;40.00;;
16039;SDS011;8124;48.634;8.120;2023-06-22T21:06:36;44.85;;;40.08;;
16039;SDS011;8124;48.634;8.120;2023-06-22T21:11:39;44.88;;;39.97;;
16039;SDS011;8124;48.634;8.120;2023-06-22T21:16:43;44.80;;;40.00;;
16039;SDS011;8124;48.634;8.120;2023-06-22T21:21:48;44.90;;;40.08;;
16039;SDS011;8124;48.634;8.120;2023-06-22T21:26:51;45.10;;;40.17;;
16039;SDS011;8124;48.634;8.120;2023-06-22T21:31:54;46.03;;;39.63;;
16039;SDS011;8124;48.634;8.120;2023-06-22T21:36:58;45.65;;;40.03;;
16039;SDS011;8124;48.634;8.120;2023-06-22T21:42:01;44.20;;;39.42;;
16039;SDS011;8124;48.634;8.120;2023-06-22T21:47:16;44.28;;;39.55;;
16039;SDS011;8124;48.634;8.120;2023-06-22T21:52:21;44.35;;;39.55;;
16039;SDS011;8124;48.634;8.120;2023-06-22T21:57:24;44.15;;;39.35;;
16039;SDS011;8124;48.634;8.120;2023-06-22T22:02:28;44.17;;;39.25;;
16039;SDS011;8124;48.634;8.120;2023-06-22T22:07:32;44.58;;;39.78;;
16039;SDS011;8124;48.634;8.120;2023-06-22T22:12:35;44.20;;;39.40;;
16039;SDS011;8124;48.634;8.120;2023-06-22T22:17:38;44.70;;;39.95;;
16039;SDS011;8124;48.634;8.120;2023-06-22T22:22:43;44.22;;;39.38;;
16039;SDS011;8124;48.634;8.120;2023-06-22T22:27:46;44.72;;;39.97;;
16039;SDS011;8124;48.634;8.120;2023-06-22T22:32:49;45.53;;;39.35;;
16039;SDS011;8124;48.634;8.120;2023-06-22T22:37:53;45.45;;;40.47;;
16039;SDS011;8124;48.634;8.120;2023-06-22T22:42:56;44.22;;;39.53;;
16039;SDS011;8124;48.634;8.120;2023-06-22T22:47:59;44.80;;;39.58;;
16039;SDS011;8124;48.634;8.120;2023-06-22T22:53:04;46.08;;;40.10;;
16039;SDS011;8124;48.634;8.120;2023-06-22T22:58:09;44.67;;;39.88;;
16039;SDS011;8124;48.634;8.120;2023-06-22T23:03:12;44.15;;;39.42;;
16039;SDS011;8124;48.634;8.120;2023-06-22T23:08:17;44.75;;;39.88;;
16039;SDS011;8124;48.634;8.120;2023-06-22T23:13:20;45.00;;;40.10;;
16039;SDS011;8124;48.634;8.120;2023-06-22T23:18:23;44.83;;;39.92;;
16039;SDS011;8124;48.634;8.120;2023-06-22T23:23:27;45.60;;;40.28;;
16039;SDS011;8124;48.634;8.120;2023-06-22T23:28:30;45.90;;;40.70;;
16039;SDS011;8124;48.634;8.120;2023-06-22T23:33:38;46.25;;;41.15;;
16039;SDS011;8124;48.634;8.120;2023-06-22T23:38:43;45.75;;;40.75;;
16039;SDS011;8124;48.634;8.120;2023-06-22T23:43:46;46.17;;;40.72;;
16039;SDS011;8124;48.634;8.120;2023-06-22T23:48:51;48.80;;;41.25;;
16039;SDS011;8124;48.634;8.120;2023-06-22T23:53:56;48.13;;;40.70;;
16039;SDS011;8124;48.634;8.120;2023-06-22T23:58:59;48.15;;;41.20;;
